Labs

Pokémon
United States
Tournaments

1141 tournaments, 1135 completed

Alabama
1/20 Saturday
10:00 Mobile (36618) 2 + 2 + 18 = 22
12:00 Birmingham (35244) 4 + 9 + 19 = 32
3:00 Mobile (36618) 2 + 2 + 18 = 22
1/21 Sunday
9:00 Huntsville (35802) 5 + 10 + 12 = 27
1/28 Sunday
1:00 Opelika (36801) 4 + 5 + 15 = 24
Alaska
1/20 Saturday
12:00 Anchorage (99504) 5 + 2 + 19 = 26
1/21 Sunday
1:00 Fairbanks (99701) 0 + 5 + 16 = 21
1/27 Saturday
12:00 Anchorage (99504) 2 + 0 + 9 = 11
Alberta
1/20 Saturday
10:00 Edmonton (T5J 1N9) 0 + 1 + 22 = 23
10:30 St. Albert (T8N 6A7) 13 + 9 + 4 = 26
12:00 Camrose (T4V 1R1) 0 + 2 + 6 = 8
12:00 Grande Prairie (T8V-0V3) 8 + 4 + 17 = 29
1:00 St. Albert (T8N 6A7) 2 + 5 + 7 = 14
2:00 Edmonton (T5J 1N9) 0 + 1 + 10 = 11
2:00 Calgary (T2E 8P1) 6 + 6 + 14 = 26
1/21 Sunday
10:00 Edmonton (T5J 3K1) 3 + 5 + 20 = 28
11:00 Lloydminster (T9V 2H3) 1 + 2 + 15 = 18
11:00 Calgary (T2G 5A6) 4 + 5 + 7 = 16
11:15 Calgary (T3C 0K2) 0 + 4 + 13 = 17
12:00 Red Deer (T4N 1T1) 3 + 4 + 21 = 28
1:00 Edmonton (T5J 3K1) 1 + 1 + 9 = 11
3:00 Calgary (T2E 8P1) 6 + 4 + 13 = 23
1/25 Thursday
6:30 Gatineau (J8T 6H5) 1 + 0 + 9 = 10
1/26 Friday
6:00 Calgary (T2E 8P1) 7 + 4 + 18 = 29
1/27 Saturday
10:00 Calgary (T2H 0W5) 0 + 2 + 6 = 8
10:00 Edmonton (T5E 4C3) 1 + 2 + 14 = 17
10:00 WETASKIWIN (T9A3P5) 13 + 7 + 13 = 33
10:30 St. Albert (T8N 6A7) 4 + 1 + 7 = 12
1:00 Lethbridge (T1J 2B8) 4 + 3 + 23 = 30
1:00 Edmonton (T5E 4C3) 2 + 0 + 7 = 9
1:30 St. Albert (T8N 6A7) 6 + 0 + 6 = 12
1/28 Sunday
10:30 St. Albert (T8N 6A7) 9 + 4 + 12 = 25
12:15 Grande Prairie (T8V-0T9) 7 + 3 + 20 = 30
2:00 Calgary (T2E 8P1) 11 + 4 + 16 = 31
Arizona
1/20 Saturday
Tempe (85281) 1 + 6 + 47 = 54
9:00 Tucson (85711) 3 + 8 + 21 = 32
11:00 Tucson (85719) 3 + 3 + 38 = 44
12:00 Gilbert (85234) 4 + 4 + 10 = 18
12:00 Chandler, (85226) 3 + 10 + 38 = 51
12:01 Yuma (85364) 3 + 0 + 13 = 16
2:30 Chandler, (85226) 0 + 2 + 8 = 10
3:00 Glendale (85302) 8 + 5 + 23 = 36
4:00 Avondale (85323) 0 + 0 + 18 = 18
1/21 Sunday
10:00 TEMPE (85282) 4 + 6 + 14 = 24
11:00 Phoenix (85016) 1 + 1 + 8 = 10
12:30 Phoenix (85020) 2 + 0 + 22 = 24
1:00 TEMPE (85282) 5 + 7 + 18 = 30
1/23 Tuesday
5:30 Gilbert (85234) 0 + 1 + 29 = 30
1/27 Saturday
12:00 Phoenix (85028) 2 + 1 + 6 = 9
2:00 Phoenix (85013) 0 + 7 + 17 = 24
4:00 Phoenix (85028) 0 + 2 + 12 = 14
1/28 Sunday
2:00 Glendale (85307) 5 + 9 + 25 = 39
Arkansas
1/20 Saturday
11:30 Russellville (72801) 1 + 1 + 11 = 13
12:00 Van Buren (72956) 1 + 1 + 8 = 10
12:00 Rogers (72756) 3 + 6 + 9 = 18
2:00 Sherwood (72120) 1 + 5 + 10 = 16
1/21 Sunday
11:30 Cabot (72023) 0 + 0 + 13 = 13
1/23 Tuesday
9:00 Fayetteville (72704) 0 + 0 + 10 = 10
1/27 Saturday
11:00 Little Rock (72211) 1 + 1 + 13 = 15
British Columbia
1/20 Saturday
Richmond (V6X 0J8) 1 + 2 + 19 = 22
10:00 Fort St. John (V1J 1Y7) 3 + 3 + 6 = 12
10:00 Mission (V2V1E4) 9 + 1 + 10 = 20
11:00 Abbotsford (V2S2G7) 2 + 3 + 9 = 14
11:30 Mission (V2V-1G7) 5 + 2 + 1 = 8
1:00 Abbotsford (V253X8) 4 + 0 + 16 = 20
2:30 Abbotsford (V2S2G7) 1 + 4 + 5 = 10
1/21 Sunday
11:00 Abbotsford (V2S2G7) 3 + 1 + 6 = 10
11:00 Surrey (V3T2W1) 6 + 5 + 8 = 19
12:30 Prince George (V2M 0A1) 2 + 9 + 11 = 22
1:00 Abbotsford (V253X8) 9 + 6 + 15 = 30
1:00 Vancouver (V5K 1Z9) 2 + 9 + 13 = 24
2:30 Abbotsford (V2S2G7) 1 + 3 + 14 = 18
4:00 Abbotsford (V253X8) 1 + 0 + 9 = 10
1/22 Monday
4:00 Richmond (V6X 0J8) 1 + 2 + 13 = 16
1/26 Friday
4:30 Burnaby (V5H 2C3) 1 + 3 + 16 = 20
5:00 Nanaimo (V9T4K6) 5 + 9 + 28 = 42
1/27 Saturday
11:00 Vancouver (V5R 5W2) 4 + 9 + 15 = 28
12:00 Chilliwack (V2P2N2) 1 + 5 + 7 = 13
1:00 Langley (V4W1L3) 6 + 9 + 10 = 25
1/28 Sunday
11:00 Surrey (V3T2W1) 1 + 3 + 4 = 8
11:30 Port Coquitlam (V3B 3N4) 2 + 7 + 18 = 27
12:00 Chilliwack (V2P2N2) 9 + 4 + 7 = 20
1:00 Langley (V4W1L3) 3 + 8 + 7 = 18
California
1/20 Saturday
Winnetka (91306) 1 + 0 + 30 = 31
Northridge (91324) 2 + 6 + 25 = 33
12:05 Temecula (92591) 4 + 2 + 12 = 18
10:00 Glendale (91203) 0 + 2 + 18 = 20
10:00 San Diego (92126) 8 + 17 + 36 = 61
10:00 Bakersfield (93311) 3 + 5 + 24 = 32
10:00 Roseville (95661) 4 + 4 + 21 = 29
11:00 Mission Viejo (92692) 11 + 7 + 12 = 30
11:00 Winnetka (91306) 1 + 5 + 9 = 15
11:00 Winnetka (91306) 1 + 1 + 10 = 12
11:00 SACRAMENTO (95833) 0 + 1 + 7 = 8
11:00 South Gate (90280) 0 + 3 + 26 = 29
11:00 Los Angeles (90036) 2 + 2 + 38 = 42
11:00 Carmichael (95608) 0 + 2 + 6 = 8
11:00 Los Angeles (90045) 0 + 0 + 16 = 16
11:30 Hesperia (92345) 5 + 6 + 18 = 29
11:30 Modesto (95350) 3 + 2 + 24 = 29
11:30 Hesperia (92345) 4 + 4 + 21 = 29
12:00 Merced (95340) 5 + 6 + 9 = 20
12:00 Northridge (91324) 6 + 1 + 12 = 19
12:00 Fresno (93710) 0 + 3 + 26 = 29
12:00 Fountain Valley (92708) 0 + 7 + 19 = 26
12:00 Westminster (92683) 3 + 3 + 7 = 13
12:00 San Dimas (91773) 10 + 1 + 9 = 20
12:00 san francisco (94116) 0 + 0 + 12 = 12
1:00 Santa Maria (93454) 3 + 0 + 17 = 20
1:00 Santa Clara (95050) 3 + 1 + 25 = 29
1:00 Vacaville (95688) 4 + 4 + 22 = 30
1:00 Sunnyvale (94087) 6 + 1 + 10 = 17
1:30 Elk Grove (95624) 12 + 16 + 61 = 89
2:00 Baldwin Park (91706) 2 + 0 + 39 = 41
3:00 Los Angeles (90036) 5 + 0 + 33 = 38
3:00 South Gate (90280) 0 + 1 + 9 = 10
3:30 Northridge (91324) 0 + 1 + 10 = 11
5:00 San Francisco (94117) 7 + 1 + 17 = 25
1/21 Sunday
2:00 Fresno (93710) 0 + 1 + 12 = 13
10:00 Pasadena (91105) 7 + 2 + 61 = 70
10:00 Berkeley (94704) 3 + 1 + 45 = 49
10:00 santa clara (95050) 9 + 6 + 27 = 42
10:00 Lancaster (93534) 2 + 4 + 23 = 29
11:00 Winnetka (91306) 0 + 1 + 11 = 12
11:00 Winnetka (91306) 0 + 2 + 10 = 12
11:00 Burlingame (94010) 1 + 2 + 14 = 17
11:00 Fresno (93710) 1 + 5 + 20 = 26
11:00 Salinas (93906) 1 + 1 + 6 = 8
12:00 Folsom (95630) 4 + 0 + 15 = 19
12:00 Northridge (91324) 1 + 2 + 20 = 23
12:00 Fountain Valley (92708) 2 + 5 + 9 = 16
12:00 Santa Monica (90401) 5 + 4 + 0 = 9
12:00 Temecula (92591) 14 + 10 + 26 = 50
12:00 Riverside (92503) 7 + 7 + 35 = 49
12:00 Los Angeles (90045) 1 + 3 + 18 = 22
12:00 Los Angeles (90045) 2 + 1 + 14 = 17
12:00 Chatsworth (91311) 0 + 0 + 8 = 8
12:00 Montclair (91763) 4 + 5 + 12 = 21
12:00 La Habra (90631) 0 + 3 + 14 = 17
12:30 Eureka (95501) 5 + 3 + 14 = 22
1:00 Oceanside (92058) 9 + 9 + 26 = 44
2:00 Burlingame (94010) 2 + 5 + 8 = 15
3:00 Northridge (91324) 0 + 1 + 11 = 12
3:00 Montclair (91763) 2 + 1 + 5 = 8
3:30 Fremont (94536) 4 + 6 + 12 = 22
5:00 Riverside (92503) 2 + 1 + 29 = 32
5:00 Montclair (91763) 1 + 3 + 11 = 15
6:00 Anaheim (92806) 0 + 0 + 8 = 8
1/22 Monday
11:00 Lemon Grove (91945) 0 + 0 + 16 = 16
1/23 Tuesday
11:00 SACRAMENTO (95833) 1 + 1 + 20 = 22
3:30 San Mateo (94403) 0 + 5 + 7 = 12
5:00 San Francisco (94117) 10 + 0 + 10 = 20
1/24 Wednesday
5:30 Salinas (93906) 0 + 0 + 15 = 15
1/26 Friday
6:00 ventura (93003) 2 + 2 + 7 = 11
1/27 Saturday
10:00 Concord (94520) 4 + 1 + 22 = 27
11:00 SACRAMENTO (95833) 5 + 1 + 13 = 19
11:00 Norwalk (90650) 0 + 0 + 11 = 11
11:00 San Jose (95127) 0 + 1 + 32 = 33
11:00 Salinas (93906) 2 + 1 + 5 = 8
11:30 Santa Clara (95050) 2 + 2 + 21 = 25
12:00 Northridge (91324) 1 + 5 + 14 = 20
12:00 Westlake Village (91362) 3 + 2 + 5 = 10
12:30 Arcata (95521) 5 + 1 + 9 = 15
1:00 Baldwin Park (91706) 3 + 0 + 16 = 19
3:00 Santa Clara (95050) 6 + 1 + 16 = 23
3:00 Norwalk (90650) 1 + 2 + 8 = 11
3:30 Northridge (91324) 0 + 3 + 15 = 18
1/28 Sunday
Berkeley (94704) 6 + 3 + 20 = 29
10:00 Temecula (92592) 5 + 4 + 16 = 25
11:30 Hesperia (92345) 5 + 1 + 18 = 24
12:00 Northridge (91324) 3 + 4 + 26 = 33
12:00 Los Angeles (90045) 4 + 0 + 27 = 31
12:00 Montclair (91763) 1 + 1 + 9 = 11
12:00 La Habra (90631) 0 + 3 + 20 = 23
1:00 Westminster (92683) 2 + 6 + 23 = 31
1:00 Manteca (95337) 4 + 6 + 13 = 23
1:00 Oceanside (92058) 13 + 8 + 23 = 44
3:00 Northridge (91324) 1 + 1 + 13 = 15
3:00 Montclair (91763) 0 + 2 + 7 = 9
4:00 Davis (95616) 1 + 1 + 11 = 13
4:00 Los Angeles (90045) 1 + 4 + 14 = 19
Colorado
1/20 Saturday
12:01 Fort Collins (80526) 1 + 0 + 15 = 16
12:01 Johnstown (80534) 3 + 5 + 36 = 44
9:00 Colorado Springs (80918) 4 + 7 + 16 = 27
10:00 Loveland (80537) 4 + 2 + 4 = 10
10:00 Northglenn (80234) 2 + 2 + 14 = 18
10:30 Colorado Springs (80918) 2 + 5 + 12 = 19
11:00 pueblo (81001) 0 + 0 + 8 = 8
2:00 Longmont (80501) 2 + 6 + 7 = 15
3:00 Johnstown (80534) 0 + 1 + 7 = 8
3:00 Littleton (80123) 2 + 3 + 10 = 15
3:00 pueblo (81001) 1 + 2 + 8 = 11
3:00 Johnstown (80534) 0 + 2 + 6 = 8
3:00 Arvada (80003) 3 + 1 + 10 = 14
1/21 Sunday
10:00 Denver (80203) 0 + 7 + 16 = 23
11:00 Aurora (80014) 2 + 3 + 7 = 12
1:00 Fort Collins (80526) 7 + 4 + 11 = 22
1:00 Fort Collins (80526) 1 + 0 + 7 = 8
1:00 Greeley (80631) 3 + 1 + 4 = 8
1:00 Littleton (80123) 3 + 3 + 18 = 24
1/27 Saturday
10:00 Colorado Springs (80918) 6 + 6 + 20 = 32
11:00 Johnstown (80534) 5 + 2 + 5 = 12
11:00 Greeley (80631) 1 + 5 + 15 = 21
1:00 Denver (80231) 6 + 5 + 12 = 23
3:00 Johnstown (80534) 3 + 4 + 9 = 16
5:30 Fort Collins (80526) 1 + 1 + 8 = 10
1/28 Sunday
1:00 Fort Collins (80526) 9 + 2 + 14 = 25
1:00 Littleton (80123) 5 + 5 + 5 = 15
Connecticut
1/20 Saturday
11:00 Newington (06111) 3 + 1 + 19 = 23
2:00 Newington (06111) 3 + 2 + 10 = 15
1/21 Sunday
11:25 Enfield (06082) 9 + 3 + 30 = 42
2:25 Enfield (06082) 2 + 3 + 20 = 25
1/27 Saturday
11:00 Danbury (06810) 0 + 1 + 11 = 12
11:00 Newington (06111) 0 + 3 + 17 = 20
11:00 Manchester (06040) 4 + 7 + 26 = 37
1/28 Sunday
2:00 Danbury (06810) 3 + 7 + 19 = 29
Delaware
1/20 Saturday
12:00 Smyrna (19977) 1 + 4 + 12 = 17
1/28 Sunday
11:00 Wilmington (19810) 2 + 4 + 24 = 30
1:30 Wilmington (19810) 6 + 6 + 21 = 33
District of Columbia
1/21 Sunday
11:30 Washington (20003) 3 + 2 + 15 = 20
Florida
1/20 Saturday
9:00 Orlando (32828) 3 + 8 + 38 = 49
9:30 West Melbourne (32904) 1 + 1 + 18 = 20
10:00 Auburndale (33823) 5 + 5 + 11 = 21
10:00 Clermont (34711) 4 + 2 + 14 = 20
10:30 Cape Coral (33990) 4 + 1 + 15 = 20
11:00 Pensacola (32504) 0 + 0 + 8 = 8
11:00 Hollywood (33024) 2 + 0 + 10 = 12
11:00 Orlando (32828) 2 + 3 + 16 = 21
11:00 Lauderhill (33351) 1 + 0 + 19 = 20
12:00 Sanford (32771) 0 + 1 + 8 = 9
12:00 Miami (33174) 0 + 0 + 8 = 8
12:00 West Palm Beach (33409) 4 + 1 + 16 = 21
12:00 Tampa (33617) 1 + 1 + 10 = 12
12:30 Orlando (32828) 1 + 1 + 10 = 12
1:30 Palm Bay (32905) 1 + 0 + 10 = 11
2:00 Ocala (34471) 2 + 2 + 12 = 16
2:00 Cape Coral (33990) 4 + 1 + 13 = 18
2:00 Pinellas Park (33781) 2 + 0 + 13 = 15
4:30 Davie (33024) 3 + 3 + 21 = 27
6:00 Jacksonville (32205) 3 + 5 + 22 = 30
1/21 Sunday
11:00 Tampa (33614) 6 + 3 + 22 = 31
11:00 Jacksonville (32216) 0 + 0 + 17 = 17
11:00 Hollywood (33024) 1 + 5 + 18 = 24
11:00 Orlando (32803) 3 + 2 + 20 = 25
11:00 Sarasota (34232) 1 + 5 + 9 = 15
11:00 Tallahassee (32303) 1 + 1 + 19 = 21
11:00 Seminole (33772) 0 + 1 + 7 = 8
12:00 Miami (33174) 3 + 0 + 11 = 14
2:00 Sarasota (34232) 3 + 5 + 17 = 25
2:30 Tallahassee (32303) 0 + 1 + 13 = 14
1/22 Monday
4:30 Orlando (32828) 2 + 1 + 5 = 8
7:00 Seminole (33772) 0 + 1 + 7 = 8
1/23 Tuesday
6:00 Orlando (32828) 0 + 0 + 8 = 8
1/24 Wednesday
4:00 Orlando (32837) 5 + 11 + 44 = 60
5:00 Cape Coral (33990) 1 + 0 + 13 = 14
1/25 Thursday
4:00 Crestview (32536) 7 + 7 + 13 = 27
5:00 Tampa (33619) 6 + 3 + 41 = 50
1/26 Friday
6:30 Kissimmee (34741) 1 + 0 + 11 = 12
1/27 Saturday
10:30 Tampa (33647) 9 + 3 + 15 = 27
11:00 Port St John (32927) 3 + 4 + 7 = 14
11:30 Maitland (32751) 4 + 10 + 36 = 50
12:00 Miami (33174) 0 + 1 + 13 = 14
2:00 Ocala (34471) 4 + 2 + 14 = 20
4:00 Melbourne (32935) 3 + 1 + 15 = 19
6:00 Winter Park (32792) 2 + 0 + 6 = 8
1/28 Sunday
10:45 Coconut Creek (33073) 4 + 2 + 22 = 28
11:00 Tallahassee (32303) 1 + 3 + 11 = 15
11:00 Kissimmee (34746) 0 + 0 + 8 = 8
12:00 West Palm Beach (33409) 5 + 5 + 15 = 25
12:00 Miami (33174) 0 + 0 + 11 = 11
1:00 Winter Haven (33881) 4 + 3 + 8 = 15
4:00 Naples (34116) 2 + 3 + 4 = 9
Georgia
1/20 Saturday
Duluth (30096) 3 + 3 + 38 = 44
12:01 Macon (31206) 0 + 0 + 12 = 12
11:00 Cumming (30040) 4 + 11 + 21 = 36
12:00 COLUMBUS (31909) 5 + 3 + 8 = 16
12:00 Newnan (30263) 2 + 1 + 12 = 15
12:00 Duluth (30096) 4 + 5 + 21 = 30
12:00 Columbus (31909) 7 + 3 + 13 = 23
12:00 Woodstock (30188) 3 + 4 + 20 = 27
1:00 Valdosta (31601) 3 + 4 + 20 = 27
3:15 Macon (31206) 2 + 0 + 11 = 13
4:00 Cumming (30040) 1 + 6 + 9 = 16
5:00 Valdosta (31601) 0 + 0 + 8 = 8
1/21 Sunday
12:00 Roswell (30075) 1 + 8 + 16 = 25
1:00 Columbus (31909) 2 + 2 + 7 = 11
1/24 Wednesday
4:00 Kennesaw (30144) 3 + 0 + 9 = 12
6:00 Roswell (30075) 4 + 4 + 9 = 17
1/26 Friday
7:00 Athens (30606) 2 + 3 + 14 = 19
1/27 Saturday
11:00 Warner Robins (31088) 3 + 10 + 15 = 28
12:00 Augusta (30907) 2 + 3 + 14 = 19
12:00 Roswell (30076) 5 + 6 + 18 = 29
12:00 Braselton (30542) 2 + 4 + 8 = 14
12:00 Woodstock (30188) 5 + 6 + 11 = 22
1:00 Valdosta (31601) 2 + 1 + 17 = 20
2:30 Augusta (30907) 1 + 0 + 11 = 12
3:15 Macon (31206) 1 + 1 + 8 = 10
1/28 Sunday
10:00 Roswell (30076) 2 + 1 + 17 = 20
2:30 Roswell (30076) 2 + 6 + 13 = 21
Hawaii
1/20 Saturday
12:00 Honolulu (96817) 9 + 5 + 16 = 30
3:00 Honolulu (96817) 1 + 3 + 14 = 18
11:00 Honolulu (96826) 0 + 0 + 12 = 12
1/21 Sunday
12:00 Honolulu (96826) 6 + 5 + 10 = 21
3:00 Honolulu (96826) 0 + 3 + 7 = 10
1/27 Saturday
12:00 Honolulu (96826) 4 + 2 + 7 = 13
Idaho
1/20 Saturday
11:00 nampa (83651) 0 + 3 + 10 = 13
1/21 Sunday
11:00 Boise (83709) 6 + 4 + 16 = 26
12:00 Twin Falls (83301) 2 + 1 + 7 = 10
1/24 Wednesday
6:00 Moscow (83843) 0 + 1 + 11 = 12
1/27 Saturday
9:00 Twin Falls (83301) 4 + 2 + 4 = 10
11:00 Meridian (83642) 4 + 7 + 30 = 41
Illinois
1/20 Saturday
Chicago (60618) 0 + 1 + 12 = 13
Berwyn (60402) 3 + 1 + 40 = 44
Elmhurst (60126) 1 + 2 + 12 = 15
Chicago (60641) 0 + 0 + 23 = 23
9:00 Carbondale (62901) 2 + 3 + 8 = 13
9:00 Berwyn (60402) 2 + 3 + 12 = 17
9:30 Downers Grove (60515) 7 + 1 + 8 = 16
11:00 Chicago (60611) 1 + 1 + 6 = 8
11:00 Loves Park (61111) 1 + 5 + 20 = 26
11:00 Plainfield (60544) 2 + 2 + 13 = 17
11:00 Elmhurst (60126) 2 + 2 + 8 = 12
11:00 Chicago (60618) 7 + 2 + 3 = 12
11:30 Chicago (60607) 12 + 3 + 5 = 20
11:30 Chicago (60641) 2 + 0 + 6 = 8
12:00 Glenview (60025) 4 + 6 + 14 = 24
12:00 Chicago (60618) 0 + 0 + 9 = 9
12:00 Washington (61571) 2 + 6 + 17 = 25
12:30 Downers Grove (60515) 6 + 0 + 5 = 11
1:00 Crystal Lake (60014) 5 + 4 + 14 = 23
1:00 Gurnee (60031) 0 + 0 + 10 = 10
1:00 Berwyn (60402) 9 + 9 + 12 = 30
2:00 Antioch (60002) 0 + 1 + 7 = 8
2:00 Quincy (62305) 1 + 1 + 10 = 12
2:30 Frankfort (60423) 1 + 10 + 13 = 24
3:00 Chicago (60641) 2 + 0 + 8 = 10
4:00 Loves Park (61111) 1 + 3 + 12 = 16
6:00 Crystal Lake (60014) 2 + 2 + 4 = 8
6:30 Chicago (60641) 1 + 0 + 8 = 9
11:00 Rockford (61108) 0 + 0 + 12 = 12
1/21 Sunday
Edwardsville (62025) 1 + 9 + 0 = 10
Edwardsville (62025) 0 + 0 + 21 = 21
9:00 Berwyn (60402) 3 + 3 + 19 = 25
11:30 Chicago (60641) 0 + 2 + 21 = 23
12:00 Skokie (60077) 3 + 7 + 5 = 15
12:00 Rockford (61108) 0 + 0 + 8 = 8
12:00 Buffalo Grove (60089) 3 + 16 + 22 = 41
1:00 Berwyn (60402) 10 + 6 + 40 = 56
2:00 Antioch (60002) 0 + 0 + 8 = 8
4:00 Rockford (61108) 0 + 0 + 8 = 8
4:30 Chicago (60641) 0 + 0 + 15 = 15
1/22 Monday
5:00 Niles (60714) 6 + 4 + 23 = 33
1/23 Tuesday
5:00 Chicago (60618) 1 + 0 + 9 = 10
5:00 Niles (60714) 5 + 1 + 17 = 23
6:00 Elmhurst (60126) 5 + 4 + 19 = 28
1/24 Wednesday
6:30 Chicago (60641) 0 + 0 + 26 = 26
1/25 Thursday
5:00 Berwyn (60402) 2 + 2 + 21 = 25
1/26 Friday
3:00 Gurnee (60031) 0 + 1 + 9 = 10
6:30 Chicago (60641) 1 + 3 + 14 = 18
11:00 Berwyn (60402) 0 + 1 + 12 = 13
1/27 Saturday
9:00 Berwyn (60402) 4 + 1 + 16 = 21
1:00 Berwyn (60402) 3 + 1 + 15 = 19
2:00 Antioch (60002) 1 + 0 + 13 = 14
2:30 Frankfort (60423) 4 + 8 + 18 = 30
1/28 Sunday
Edwardsville (62025) 2 + 3 + 10 = 15
9:00 Berwyn (60402) 1 + 1 + 8 = 10
11:00 Chicago (60618) 7 + 2 + 3 = 12
12:00 Skokie (60077) 2 + 6 + 3 = 11
1:00 Berwyn (60402) 3 + 4 + 17 = 24
2:00 Antioch (60002) 0 + 3 + 5 = 8
Indiana
1/20 Saturday
10:00 Bloomington (47404) 2 + 4 + 7 = 13
10:00 New Salisbury (47161) 2 + 5 + 19 = 26
10:00 Indianapolis (46227) 0 + 0 + 13 = 13
11:30 Indianapolis (46250) 1 + 7 + 25 = 33
12:00 New Salisbury (47161) 1 + 5 + 17 = 23
12:00 Anderson (46013) 2 + 0 + 14 = 16
1:00 Indianapolis (46227) 2 + 0 + 20 = 22
1:30 Indianapolis (46250) 3 + 3 + 27 = 33
3:00 Greenfield (46140) 0 + 0 + 10 = 10
5:00 Evansville (47711) 5 + 9 + 13 = 27
6:00 Hobart (46342) 0 + 5 + 8 = 13
7:00 Evansville (47711) 1 + 9 + 15 = 25
1/21 Sunday
12:00 Indianapolis (46227) 2 + 0 + 11 = 13
12:00 Evansville (47711) 0 + 1 + 7 = 8
12:00 Muncie (47303) 0 + 3 + 17 = 20
1:00 Evansville (47711) 0 + 1 + 8 = 9
1:00 Indianapolis (46236) 5 + 3 + 13 = 21
1/22 Monday
5:00 Indianapolis (46227) 1 + 4 + 17 = 22
1/23 Tuesday
5:30 Mooresville (46158) 2 + 8 + 6 = 16
1/25 Thursday
4:30 Valparaiso (46383) 1 + 9 + 20 = 30
1/26 Friday
5:00 Evansville (47711) 2 + 5 + 13 = 20
7:00 Evansville (47711) 0 + 2 + 14 = 16
1/27 Saturday
10:00 Indianapolis (46227) 4 + 3 + 5 = 12
12:00 Elkhart (46514) 2 + 3 + 5 = 10
2:00 Indianapolis (46225)
3:00 Indianapolis (46268) 5 + 5 + 7 = 17
5:00 Evansville (47711) 1 + 3 + 10 = 14
7:00 Evansville (47711) 0 + 5 + 7 = 12
1/28 Sunday
11:00 Fort Wayne (46804) 1 + 3 + 14 = 18
12:00 Indianapolis (46227) 0 + 1 + 8 = 9
12:00 Evansville (47711) 0 + 2 + 8 = 10
1:00 Evansville (47711) 0 + 3 + 5 = 8
1:00 Indianapolis (46236) 2 + 3 + 10 = 15
Iowa
1/27 Saturday
10:00 Ames (50014) 3 + 4 + 29 = 36
1/28 Sunday
11:00 Des Moines (50325) 4 + 13 + 27 = 44
Kansas
1/20 Saturday
12:01 Lenexa (66210) 1 + 1 + 13 = 15
12:01 Lenexa (66210) 0 + 2 + 28 = 30
12:15 Lenexa (66210) 2 + 2 + 5 = 9
1:00 Great Bend (67530) 7 + 3 + 7 = 17
2:00 Leavenworth (66048) 11 + 8 + 3 = 22
2:15 Lenexa (66210) 0 + 1 + 7 = 8
6:30 McPherson (67460) 6 + 2 + 11 = 19
1/21 Sunday
12:15 Lenexa (66210) 3 + 10 + 23 = 36
2:30 Lenexa (66210) 0 + 1 + 13 = 14
1/23 Tuesday
4:00 Great Bend (67530) 6 + 0 + 2 = 8
1/28 Sunday
2:00 Leavenworth (66048) 1 + 9 + 3 = 13
Kentucky
1/20 Saturday
11:00 Middlesboro (40965) 0 + 0 + 11 = 11
1/26 Friday
12:00 Owensboro (42301) 1 + 0 + 8 = 9
1/27 Saturday
2:00 Louisville (40220) 3 + 12 + 20 = 35
3:00 Highland Heights (41076) 3 + 14 + 61 = 78
1/28 Sunday
1:00 Louisville (40220) 2 + 16 + 33 = 51
Louisiana
1/20 Saturday
9:00 Prairieville (70769) 1 + 0 + 9 = 10
12:00 Metairie (70006) 0 + 0 + 15 = 15
2:00 Alexandria (71301) 1 + 1 + 14 = 16
1/21 Sunday
9:00 Baton Rouge (70817) 6 + 2 + 14 = 22
12:00 Shreveport (71105) 3 + 0 + 9 = 12
12:00 Metairie (70006) 0 + 4 + 13 = 17
2:00 Alexandria (71301) 2 + 3 + 13 = 18
1/25 Thursday
5:00 Lafayette (70503) 0 + 2 + 27 = 29
1/26 Friday
6:00 Metairie (70003) 2 + 0 + 12 = 14
1/27 Saturday
12:00 Metairie (70006) 2 + 6 + 17 = 25
1/28 Sunday
12:00 Shreveport (71105) 2 + 3 + 5 = 10
12:00 Metairie (70006) 0 + 4 + 13 = 17
Maine
1/20 Saturday
11:00 Presque Isle (04769) 2 + 0 + 17 = 19
1/21 Sunday
12:00 Westbrook (04092) 4 + 8 + 9 = 21
1/27 Saturday
11:00 Augusta (04330) 2 + 6 + 8 = 16
2:00 Augusta (04330) 3 + 2 + 8 = 13
Manitoba
1/20 Saturday
11:00 Winnipeg (R2G 1L4) 1 + 6 + 20 = 27
11:00 Winnipeg (R2V 3C8) 0 + 3 + 6 = 9
11:00 Winnipeg (R2V 3C8) 1 + 3 + 6 = 10
1/21 Sunday
12:00 Winnipeg (R3T2C5) 2 + 4 + 20 = 26
1/27 Saturday
10:00 Winnipeg (R3L 2C2) 0 + 1 + 9 = 10
Maryland
1/20 Saturday
11:00 Glen Burnie (21060) 6 + 6 + 28 = 40
12:00 Abingdon (21009) 1 + 1 + 16 = 18
1/21 Sunday
11:00 Rockville (20852) 13 + 12 + 30 = 55
12:00 Hunt Valley ( 21030) 6 + 3 + 13 = 22
1:00 California (20619) 5 + 11 + 14 = 30
1:30 Rockville (20852) 2 + 1 + 13 = 16
1/27 Saturday
10:00 glen burnie (21061) 8 + 4 + 20 = 32
1/28 Sunday
11:30 Rockville (20852) 9 + 8 + 32 = 49
12:00 Hunt Valley ( 21030) 5 + 6 + 11 = 22
1:30 Rockville (20852) 2 + 2 + 14 = 18
Massachusetts
1/20 Saturday
9:30 Lexington (02421) 10 + 8 + 7 = 25
10:00 Cambridge (02139) 3 + 0 + 13 = 16
10:30 CARVER (02330) 2 + 2 + 8 = 12
11:00 Woburn (01801) 3 + 1 + 4 = 8
11:30 Abington (02351) 1 + 0 + 7 = 8
1/21 Sunday
9:00 SALEM (01970) 3 + 1 + 8 = 12
11:00 Feeding Hills (01030) 0 + 0 + 8 = 8
11:30 Somerville (02144) 3 + 3 + 12 = 18
11:30 Norton (02766) 3 + 7 + 11 = 21
12:00 BROCKTON (02302) 1 + 6 + 9 = 16
12:00 New Bedford (02745) 1 + 3 + 11 = 15
1/27 Saturday
10:00 Tewksbury (01876) 3 + 0 + 26 = 29
10:30 CARVER (02330) 1 + 1 + 11 = 13
1/28 Sunday
11:00 Hadley (01035) 3 + 1 + 25 = 29
11:30 Saugus (01906) 1 + 6 + 7 = 14
Michigan
1/20 Saturday
Bay City (48706) 0 + 0 + 24 = 24
11:00 Jackson (49201) 2 + 3 + 12 = 17
11:00 Shelby charter township (48317) 3 + 4 + 14 = 21
11:00 Garden City (48135) 1 + 4 + 17 = 22
12:00 Battle Creek (49015) 4 + 2 + 10 = 16
12:00 Grand Rapids (49534) 4 + 3 + 26 = 33
12:00 Howell (48843) 4 + 9 + 23 = 36
12:00 Clinton Township (48038) 1 + 2 + 19 = 22
2:30 Jackson (49201) 1 + 4 + 9 = 14
3:00 Grand Rapids (49534) 0 + 0 + 12 = 12
3:00 Bay City (48706) 1 + 2 + 14 = 17
3:00 Garden City (48135) 2 + 1 + 29 = 32
3:00 Clinton Township (48038) 1 + 1 + 10 = 12
5:00 Kentwood (49512) 5 + 7 + 23 = 35
5:30 Jackson (49201) 1 + 4 + 7 = 12
6:00 Clinton Township (48038) 0 + 0 + 9 = 9
1/21 Sunday
11:00 Shelby charter township (48317) 3 + 1 + 11 = 15
12:30 Westland (48185) 3 + 9 + 11 = 23
12:30 Kentwood (49512) 4 + 1 + 19 = 24
12:45 Livonia (48154) 3 + 4 + 21 = 28
2:00 Clinton Township (48038) 1 + 0 + 7 = 8
1/27 Saturday
11:00 Saint Johns (48879) 2 + 5 + 9 = 16
11:00 Garden City (48135) 2 + 1 + 13 = 16
11:30 Tecumseh (49286) 1 + 2 + 5 = 8
12:00 Kalamazoo (49009) 1 + 2 + 6 = 9
12:00 Clinton Township (48038) 1 + 1 + 9 = 11
3:00 Clinton Township (48038) 4 + 6 + 21 = 31
3:30 Garden City (48135) 0 + 1 + 7 = 8
5:00 Kalamazoo (49009) 3 + 2 + 7 = 12
6:00 Clinton Township (48038) 0 + 1 + 10 = 11
Minnesota
1/20 Saturday
Northfield (55057) 3 + 6 + 12 = 21
10:00 Roseville (55113) 1 + 8 + 21 = 30
10:00 Burnsville (55306) 4 + 4 + 18 = 26
11:00 Cambridge (55008) 1 + 2 + 6 = 9
11:00 South St Paul (55075) 3 + 8 + 21 = 32
11:00 Mankato (56001) 4 + 3 + 7 = 14
11:30 Winona (55987) 0 + 1 + 9 = 10
12:00 Waite Park (56387) 3 + 1 + 8 = 12
1:00 Roseville (55113) 5 + 6 + 9 = 20
4:00 Maplewood (55109) 3 + 1 + 16 = 20
4:00 Roseville (55113) 0 + 5 + 11 = 16
4:30 Moorhead (56560) 0 + 1 + 8 = 9
1/21 Sunday
12:00 Minneapolis (55406) 0 + 2 + 7 = 9
12:00 Coon Rapids (55448) 0 + 2 + 7 = 9
1/27 Saturday
9:00 Winona (55987) 2 + 4 + 8 = 14
10:00 Saint Louis Park (55426) 3 + 10 + 16 = 29
10:00 St Cloud (56301) 1 + 1 + 6 = 8
10:00 Duluth (55807) 6 + 5 + 13 = 24
1/28 Sunday
11:00 Duluth (55807) 1 + 2 + 6 = 9
Mississippi
1/20 Saturday
10:00 Hattiesburg (39402) 0 + 2 + 12 = 14
12:00 Ridgeland (39157) 7 + 2 + 13 = 22
12:00 Gautier (39553) 0 + 3 + 19 = 22
1:00 Starkville (39759) 3 + 4 + 13 = 20
2:00 Pearl (39208) 2 + 2 + 13 = 17
5:00 Pearl (39208) 0 + 1 + 13 = 14
1/21 Sunday
9:00 Gautier (39553) 3 + 3 + 22 = 28
1:00 Starkville (39759) 1 + 3 + 16 = 20
2:30 Pearl (39208) 2 + 0 + 12 = 14
1/27 Saturday
12:00 Ridgeland (39157) 3 + 1 + 4 = 8
2:00 Pearl (39208) 0 + 1 + 7 = 8
5:00 Pearl (39208) 0 + 1 + 7 = 8
1/28 Sunday
2:30 Pearl (39208) 0 + 1 + 7 = 8
Missouri
1/20 Saturday
12:01 Independence (64050-3705) 1 + 1 + 16 = 18
9:00 West Plains (65775) 4 + 2 + 10 = 16
12:00 ofallon (63366) 2 + 17 + 14 = 33
12:00 Independence (64050-3705) 6 + 5 + 17 = 28
12:00 St. Louis (63128) 3 + 3 + 6 = 12
1:00 Springfield (65804) 0 + 3 + 15 = 18
1:30 Sedalia (65301) 1 + 4 + 22 = 27
2:00 West Plains (65775) 2 + 1 + 5 = 8
3:00 Independence (64050-3705) 0 + 2 + 9 = 11
5:00 Springfield (65804) 1 + 3 + 26 = 30
11:29 Crestwood (63126) 1 + 4 + 31 = 36
1/21 Sunday
10:00 Saint Joseph (64507) 1 + 5 + 5 = 11
12:00 Columbia (65203) 6 + 3 + 20 = 29
12:00 Springfield (65804) 4 + 0 + 13 = 17
1:00 Springfield (65804) 1 + 0 + 7 = 8
1:15 Independence (64050-3705) 1 + 0 + 7 = 8
1:30 Sedalia (65301) 2 + 4 + 14 = 20
1/22 Monday
9:00 St. Charles (63303) 2 + 1 + 6 = 9
1/24 Wednesday
6:30 Crestwood (63126) 1 + 3 + 26 = 30
1/27 Saturday
3:00 West Plains (65775) 2 + 2 + 4 = 8
5:00 Springfield (65804) 4 + 6 + 22 = 32
Montana
1/20 Saturday
11:00 Missoula (59801) 1 + 4 + 7 = 12
11:00 Great Falls (59401) 1 + 1 + 6 = 8
1/27 Saturday
11:00 Missoula (59801) 2 + 1 + 9 = 12
11:00 Great Falls (59401) 1 + 2 + 5 = 8
Nebraska
1/20 Saturday
10:00 McCook (69001) 7 + 1 + 5 = 13
11:00 Omaha (68144) 6 + 5 + 13 = 24
12:00 North Platte (69101) 2 + 1 + 5 = 8
2:30 Omaha (68144) 3 + 5 + 14 = 22
6:00 Omaha (68164) 0 + 2 + 18 = 20
1/21 Sunday
12:00 Kearney (68845) 2 + 4 + 10 = 16
12:00 Omaha (68164) 9 + 3 + 20 = 32
12:00 Lincoln (68506) 11 + 3 + 8 = 22
2:30 Lincoln (68506) 3 + 1 + 6 = 10
3:00 Omaha (68164) 2 + 1 + 8 = 11
1/23 Tuesday
12:00 Bellevue (68005) 8 + 5 + 33 = 46
1/28 Sunday
11:00 Omaha (68144) 3 + 3 + 14 = 20
Nevada
1/20 Saturday
10:00 Reno (89502) 2 + 3 + 27 = 32
12:00 Las Vegas (89146) 0 + 2 + 22 = 24
3:30 Reno (89502) 0 + 2 + 15 = 17
1/21 Sunday
11:00 Las Vegas (89129) 0 + 0 + 12 = 12
11:00 Reno (89502) 0 + 0 + 8 = 8
2:00 Las Vegas (89121) 0 + 1 + 17 = 18
1/27 Saturday
12:00 Las Vegas (89146) 1 + 0 + 17 = 18
1/28 Sunday
2:00 Las Vegas (89121) 0 + 3 + 20 = 23
New Brunswick
1/20 Saturday
11:00 Saint John (E2L2H3) 4 + 5 + 20 = 29
11:30 Saint John (E2M 7X1) 1 + 7 + 9 = 17
1/27 Saturday
11:00 Moncton (E1C2N4) 2 + 6 + 16 = 24
11:30 Saint John (E2M 7X1) 0 + 3 + 8 = 11
1/28 Sunday
12:30 Fredericton (E3B 3B9) 4 + 3 + 19 = 26
New Hampshire
1/20 Saturday
10:00 Londonderry (03053) 1 + 6 + 25 = 32
1/21 Sunday
10:00 Nashua (03063) 1 + 5 + 15 = 21
10:00 Rochester (03867) 3 + 8 + 14 = 25
1/27 Saturday
2:00 Rochester (03867) 1 + 2 + 13 = 16
1/28 Sunday
10:00 Lebanon (03766) 0 + 1 + 13 = 14
10:00 Nashua (03063) 2 + 7 + 7 = 16
11:00 Manchester (03103) 2 + 5 + 24 = 31
New Jersey
1/20 Saturday
Clifton (07012 ) 2 + 1 + 31 = 34
9:00 Cedar Grove (07009) 8 + 5 + 27 = 40
10:00 Scotch Plains (07076) 9 + 7 + 24 = 40
10:00 Matawan (07747) 1 + 6 + 11 = 18
11:00 Randolph (07869) 0 + 4 + 9 = 13
12:00 Livingston (07039) 7 + 4 + 12 = 23
2:00 Matawan (07747) 2 + 9 + 17 = 28
6:00 Matawan (07747) 0 + 3 + 7 = 10
1/21 Sunday
10:00 Randolph (07869) 2 + 8 + 13 = 23
10:30 somerville (08876) 7 + 6 + 17 = 30
12:00 Boonton (07005) 2 + 2 + 22 = 26
12:30 Randolph (07869) 3 + 9 + 7 = 19
1/26 Friday
5:30 Boonton (07005) 12 + 10 + 29 = 51
1/27 Saturday
10:00 Hamilton (08619) 11 + 10 + 14 = 35
11:00 Hillsdale (07642) 0 + 5 + 13 = 18
11:00 Egg Harbor Township (08234) 3 + 11 + 12 = 26
12:00 Franklin (07416) 0 + 3 + 9 = 12
1:00 Franklin (07416) 0 + 2 + 6 = 8
1:00 Haddon Township (08108) 1 + 8 + 12 = 21
2:00 Hamilton (08619) 3 + 11 + 8 = 22
New Mexico
1/27 Saturday
10:00 Albuquerque (87106) 2 + 5 + 19 = 26
New York
1/20 Saturday
10:00 Catskill (12414) 2 + 3 + 5 = 10
10:30 New York (10016) 3 + 2 + 19 = 24
11:00 Brooklyn (11229) 3 + 4 + 15 = 22
11:00 Lynbrook (11563) 1 + 0 + 10 = 11
11:00 Watervilet (12189) 2 + 5 + 20 = 27
11:00 Rochester (14623) 3 + 6 + 28 = 37
11:00 Albany (12205) 0 + 3 + 10 = 13
12:00 Johnson City (13790) 2 + 1 + 16 = 19
12:00 West Babylon (11704) 1 + 1 + 20 = 22
12:00 Nanuet (10954) 4 + 4 + 12 = 20
12:00 Wantagh (11793) 8 + 8 + 13 = 29
12:00 Rochester (14623) 3 + 2 + 16 = 21
12:00 Brooklyn (11232) 1 + 0 + 15 = 16
1:00 Poughkeepsie (12601) 3 + 5 + 17 = 25
1:00 Oneida (13421) 5 + 9 + 18 = 32
1:30 New York (10016) 1 + 1 + 20 = 22
2:00 CROTON ON HUDSON (10520) 8 + 7 + 18 = 33
2:30 Selden (11784) 0 + 2 + 21 = 23
3:00 Brooklyn (11229) 1 + 6 + 16 = 23
3:00 West Babylon (11704) 2 + 0 + 10 = 12
5:00 Kenmore (14217) 0 + 2 + 20 = 22
1/21 Sunday
10:00 Catskill (12414) 1 + 0 + 7 = 8
11:00 Lynbrook (11563) 1 + 0 + 16 = 17
11:00 Flushing (11354) 1 + 2 + 15 = 18
12:00 Brooklyn (11231) 5 + 8 + 8 = 21
12:00 West Babylon (11704) 1 + 0 + 13 = 14
12:00 East Greenbush (12061) 2 + 2 + 16 = 20
12:00 Rochester (14625) 7 + 2 + 16 = 25
2:00 Kenmore (14217) 1 + 2 + 11 = 14
2:00 Hyde Park (12538) 2 + 3 + 15 = 20
2:30 Flushing (11354) 0 + 2 + 13 = 15
2:30 Selden (11784) 0 + 0 + 22 = 22
1/24 Wednesday
6:00 Selden (11784) 1 + 0 + 18 = 19
1/25 Thursday
6:00 Selden (11784) 0 + 0 + 9 = 9
6:00 Albany (12205) 3 + 2 + 18 = 23
1/26 Friday
4:00 Herkimer (13350) 2 + 0 + 12 = 14
5:00 Catskill (12414) 3 + 0 + 7 = 10
5:20 derby (14047) 7 + 6 + 20 = 33
1/27 Saturday
9:00 Williamsville (14221) 1 + 1 + 28 = 30
10:00 Massapequa (11758) 1 + 5 + 6 = 12
10:30 New York (10016) 1 + 5 + 13 = 19
11:00 Albany (12205) 1 + 1 + 12 = 14
1:30 New York (10016) 1 + 1 + 15 = 17
2:00 CROTON ON HUDSON (10520) 3 + 10 + 14 = 27
5:00 Kenmore (14217) 1 + 1 + 12 = 14
1/28 Sunday
12:00 Clifton Park (12065) 6 + 4 + 24 = 34
2:00 Kenmore (14217) 0 + 0 + 10 = 10
2:30 Selden (11784) 1 + 1 + 7 = 9
Newfoundland and Labrador
1/20 Saturday
11:00 Mount Pearl (A1N 1W3) 2 + 6 + 18 = 26
1/21 Sunday
11:00 Mount Pearl (A1N 1W3) 1 + 4 + 13 = 18
North Carolina
1/20 Saturday
Mint Hill (28227) 0 + 0 + 10 = 10
9:30 Cary (27511) 7 + 10 + 23 = 40
10:30 Charlotte (28214) 3 + 3 + 11 = 17
11:00 Mint Hill (28227) 2 + 4 + 10 = 16
11:00 High Point (27263) 1 + 1 + 6 = 8
11:30 Cary (27511) 2 + 3 + 13 = 18
12:00 Jacksonville (28546) 1 + 1 + 25 = 27
12:00 Asheville (28805) 2 + 7 + 6 = 15
2:00 Charlotte (28214) 6 + 6 + 11 = 23
3:00 lexington (27292) 0 + 0 + 8 = 8
1/21 Sunday
11:00 Durham (27707) 14 + 6 + 27 = 47
12:00 Raleigh (27603) 8 + 6 + 0 = 14
12:00 High Point (27263) 0 + 1 + 7 = 8
12:01 Kannapolis (28083) 3 + 4 + 13 = 20
1:00 Charlotte (28226) 1 + 6 + 12 = 19
3:00 Wilmington (28403) 0 + 1 + 7 = 8
3:30 Kannapolis (28083) 3 + 0 + 15 = 18
3:30 Charlotte (28214) 2 + 1 + 5 = 8
1/24 Wednesday
5:00 Charlotte (28214) 1 + 3 + 10 = 14
1/25 Thursday
6:30 Charlotte (28226) 0 + 1 + 10 = 11
1/27 Saturday
11:30 Statesville (28625) 2 + 3 + 12 = 17
12:01 Kannapolis (28083) 2 + 1 + 5 = 8
1:00 Charlotte (28214) 0 + 3 + 6 = 9
1:00 New Bern (28562) 6 + 5 + 11 = 22
1:00 Wilmington (28403) 4 + 5 + 23 = 32
2:00 Greensboro (27407) 1 + 0 + 11 = 12
1/28 Sunday
11:00 Raleigh (27612) 1 + 2 + 20 = 23
12:00 Hickory (28602) 3 + 5 + 22 = 30
12:01 Kannapolis (28083) 6 + 3 + 6 = 15
1:00 Charlotte (28226) 2 + 4 + 10 = 16
3:00 Wilmington (28403) 6 + 3 + 19 = 28
3:30 Charlotte (28214) 3 + 0 + 5 = 8
North Dakota
1/25 Thursday
5:30 Fargo (58103) 0 + 2 + 8 = 10
1/28 Sunday
12:00 Fargo (58102) 0 + 8 + 10 = 18
3:00 Fargo (58102) 0 + 1 + 8 = 9
Nova Scotia
1/20 Saturday
9:00 YARMOUTH (B5A 1E6) 1 + 3 + 16 = 20
1/21 Sunday
12:00 Sydney (B1P1C6) 3 + 0 + 12 = 15
12:30 Middleton (B0S 1P0) 1 + 6 + 1 = 8
1/27 Saturday
12:30 Middleton (B0S 1P0) 0 + 3 + 5 = 8
12:30 Halifax (B3L 1A4) 4 + 2 + 8 = 14
1/28 Sunday
12:30 Halifax (B3L 1A4) 3 + 6 + 7 = 16
Ohio
1/20 Saturday
12:01 Niles (44446 ) 0 + 1 + 10 = 11
10:00 North Olmsted (44070) 6 + 6 + 26 = 38
10:45 Cuyahoga Falls (44222) 4 + 4 + 21 = 29
11:00 Streetsboro (44241) 1 + 1 + 14 = 16
12:00 Findlay (45840) 6 + 8 + 27 = 41
12:00 Centerville (45458) 2 + 7 + 28 = 37
12:30 Mentor (44060) 1 + 0 + 7 = 8
1:00 Columbus (43210) 1 + 2 + 21 = 24
2:00 Streetsboro (44241) 1 + 1 + 7 = 9
3:00 Columbus (43210) 0 + 4 + 12 = 16
5:00 Ashtabula (44004) 3 + 9 + 29 = 41
5:00 West Portsmouth (45663) 0 + 0 + 13 = 13
5:00 Kent (44243) 1 + 2 + 28 = 31
7:00 Niles (44446 ) 1 + 2 + 7 = 10
1/21 Sunday
10:00 Columbus (43214) 4 + 5 + 20 = 29
11:00 Dublin (43017) 5 + 2 + 13 = 20
11:00 Sandusky (44870) 0 + 0 + 21 = 21
12:00 Streetsboro (44241) 1 + 2 + 12 = 15
12:00 Sylvania (43560) 5 + 2 + 29 = 36
12:00 Springfield (45504) 1 + 4 + 9 = 14
12:15 Alliance (44601) 6 + 6 + 29 = 41
2:00 Sandusky (44870) 0 + 0 + 11 = 11
1/22 Monday
5:15 Green (44685) 1 + 1 + 18 = 20
1/23 Tuesday
5:00 Cuyahoga Falls (44222) 0 + 0 + 11 = 11
5:15 Canton (44718) 6 + 11 + 16 = 33
1/25 Thursday
5:00 Ashtabula (44004) 2 + 10 + 15 = 27
1/27 Saturday
11:00 Kettering (45429) 2 + 10 + 58 = 70
11:00 Heath (43056) 3 + 0 + 7 = 10
11:30 Dublin (43017) 3 + 6 + 12 = 21
12:00 Streetsboro (44241) 2 + 2 + 12 = 16
12:00 Mansfield (44907) 3 + 1 + 4 = 8
3:00 Strongsville (44136) 3 + 4 + 11 = 18
6:00 Dayton (45419) 0 + 1 + 11 = 12
6:30 Dublin (43017) 4 + 7 + 25 = 36
1/28 Sunday
12:00 Toledo (43617) 4 + 1 + 11 = 16
12:00 Galion (44833) 0 + 0 + 17 = 17
12:00 Sylvania (43560) 1 + 7 + 28 = 36
12:00 Green (44685) 0 + 3 + 6 = 9
3:30 Green (44685) 3 + 0 + 10 = 13
Oklahoma
1/20 Saturday
12:00 Jenks (74037) 4 + 3 + 19 = 26
1/21 Sunday
12:00 Tulsa (74133) 4 + 9 + 16 = 29
4:00 Tulsa (74133) 0 + 0 + 12 = 12
1/22 Monday
5:00 Norman (73069) 2 + 4 + 20 = 26
1/27 Saturday
9:00 Moore (73160) 16 + 3 + 11 = 30
10:00 Oklahoma City (73139) 7 + 4 + 14 = 25
Ontario
1/20 Saturday
Toronto (M4C 1J8) 0 + 1 + 28 = 29
Windsor (N8W 1B9) 0 + 1 + 17 = 18
9:00 Oshawa (L1G 1K6) 8 + 6 + 24 = 38
9:00 Brampton (L6Z 1R3) 3 + 2 + 12 = 17
9:00 Ottawa (K2J 5G4) 7 + 7 + 16 = 30
10:00 Markham (L3P1V1) 2 + 3 + 9 = 14
11:00 oakville (L6K2G3) 9 + 8 + 19 = 36
11:00 Niagara Falls (L2E 2L4) 1 + 2 + 5 = 8
11:00 Windsor (N8W 1C2) 2 + 4 + 11 = 17
11:00 Vaughan (L4K 2A1) 4 + 6 + 29 = 39
11:15 Toronto (Scarborough) (M1V 1K4) 2 + 3 + 6 = 11
11:30 Mississauga (L5L 3A2) 9 + 12 + 35 = 56
11:30 Hamilton (L9B 2N1) 2 + 1 + 13 = 16
11:30 Vaughan (L4J7Y3) 1 + 3 + 14 = 18
12:00 Brampton (L6Y 1L9) 2 + 0 + 6 = 8
12:00 Windsor (N8W 1B9) 1 + 0 + 9 = 10
12:00 Toronto (M4Y1X9) 7 + 3 + 30 = 40
2:30 Vaughan (L4J7Y3) 1 + 3 + 14 = 18
3:00 Toronto (M4C 1J8) 3 + 3 + 19 = 25
4:00 Vaughan (L4K 2A1) 3 + 6 + 27 = 36
5:00 Toronto (M4E1E8) 5 + 3 + 7 = 15
1/21 Sunday
9:00 Brampton (L6Z 1R3) 4 + 13 + 16 = 33
10:00 Whitby (L1N 5H5) 6 + 1 + 11 = 18
10:00 Toronto (M4P1A6) 2 + 3 + 9 = 14
11:00 Waterloo (N2L 6L7) 8 + 3 + 20 = 31
11:00 St Catharines (L2T3J9) 3 + 5 + 10 = 18
11:00 St. Catharines (L2R 5J3) 1 + 1 + 6 = 8
11:00 oakville (L6K2G3) 9 + 4 + 9 = 22
11:15 Toronto (Scarborough) (M1V 1K4) 2 + 1 + 7 = 10
11:30 Brampton (L6Y 1N7) 17 + 14 + 44 = 75
11:30 Barrie (L4M 6J4) 2 + 5 + 17 = 24
11:30 Hamilton (L9B 2N1) 3 + 1 + 12 = 16
11:30 North Bay (P1B1G4) 2 + 3 + 15 = 20
11:30 Vaughan (L4J7Y3) 1 + 1 + 26 = 28
12:00 Windsor (N8W 1B9) 0 + 0 + 9 = 9
12:15 Windsor (N8W 1C2) 8 + 2 + 12 = 22
2:30 Vaughan (L4J7Y3) 5 + 8 + 27 = 40
1/24 Wednesday
4:00 Guelph (N1H7T8) 0 + 3 + 8 = 11
5:00 oakville (L6K2G3) 7 + 12 + 16 = 35
1/25 Thursday
4:00 Guelph (N1G4W3) 2 + 1 + 8 = 11
1/26 Friday
5:00 Toronto (M4E1E8) 1 + 3 + 6 = 10
5:30 Windsor (N8W 1C2) 0 + 1 + 7 = 8
1/27 Saturday
10:00 Mississauga (L5A 3Y1) 5 + 12 + 31 = 48
11:00 Burlington (L7R 2E4) 0 + 4 + 6 = 10
11:00 Windsor (N8W 1C2) 0 + 1 + 7 = 8
11:15 Toronto (Scarborough) (M1V 1K4) 0 + 1 + 10 = 11
12:00 Orangeville (L9W 1K2) 3 + 6 + 9 = 18
12:00 Ridgeway (L0S 1N0) 1 + 1 + 6 = 8
12:00 North York (M2M 3X9) 6 + 1 + 13 = 20
1:00 Georgetown (L7G3Z5) 4 + 1 + 3 = 8
2:30 Vaughan (L4J7Y3) 0 + 0 + 8 = 8
1/28 Sunday
10:00 Milton (L9T 5B2) 7 + 6 + 21 = 34
11:00 London (N6E3M2) 1 + 5 + 19 = 25
11:00 Grimsby (L3M1R4) 6 + 6 + 7 = 19
11:30 Barrie (L4M 6J4) 4 + 4 + 14 = 22
12:00 Kingston (K7L-1G2) 1 + 4 + 15 = 20
12:00 Ridgeway (L0S 1N0) 2 + 1 + 5 = 8
12:00 Ottawa (K1K 3B7) 3 + 12 + 26 = 41
12:00 Toronto (M4N2L2) 1 + 2 + 5 = 8
12:30 Burlington (L7R 2E4) 2 + 1 + 6 = 9
1:00 Thunder Bay (P7C 4S4) 4 + 12 + 4 = 20
2:00 Windsor (N8W 1C2) 0 + 1 + 9 = 10
5:30 North Bay (P1B1G4) 0 + 1 + 9 = 10
Oregon
1/20 Saturday
10:00 Bend (97702) 0 + 5 + 3 = 8
11:00 Portland (97206) 1 + 1 + 15 = 17
11:00 Springfield (97477) 1 + 1 + 6 = 8
11:30 Portland (97219) 2 + 2 + 18 = 22
12:00 Milwaukie (97267) 6 + 9 + 36 = 51
12:00 Salem (97301) 3 + 1 + 23 = 27
12:30 Portland (97202) 11 + 8 + 3 = 22
1/21 Sunday
11:00 Salem (97301) 2 + 9 + 7 = 18
1/22 Monday
5:30 Troutdale (97060) 4 + 5 + 9 = 18
5:30 Portland (97213) 0 + 1 + 11 = 12
1/23 Tuesday
5:30 Milwaukie (97068) 2 + 4 + 14 = 20
1/27 Saturday
9:30 Aloha (97003) 9 + 15 + 16 = 40
1/28 Sunday
12:00 Wilsonville (97070) 3 + 3 + 6 = 12
1:30 Troutdale (97060) 3 + 2 + 8 = 13
Pennsylvania
1/20 Saturday
Lancaster (17603) 0 + 0 + 14 = 14
10:00 Ebensburg (15931) 2 + 2 + 8 = 12
10:00 East Norriton (19401) 5 + 7 + 35 = 47
10:00 Lancaster (17603) 4 + 7 + 15 = 26
11:00 Monroeville (15146) 5 + 8 + 20 = 33
11:00 Waynesboro (17268) 2 + 2 + 12 = 16
11:00 READING (19605) 0 + 0 + 8 = 8
12:00 Chambersburg (17201) 4 + 0 + 8 = 12
12:00 Bethel Park (15102) 2 + 9 + 34 = 45
12:00 West Mifflin (15123) 0 + 3 + 5 = 8
12:00 Boyertown (19512) 1 + 6 + 5 = 12
12:00 Greensburg (15601) 2 + 2 + 4 = 8
12:00 Indiana (15701) 3 + 1 + 8 = 12
12:00 Bellefonte (16823) 1 + 6 + 8 = 15
12:30 East Norriton (19401) 1 + 9 + 28 = 38
2:00 New Holland (17557) 6 + 1 + 14 = 21
4:00 sharon (16146) 1 + 1 + 9 = 11
4:00 West Chester (19380) 6 + 5 + 7 = 18
1/21 Sunday
9:00 Bellefonte (16823) 1 + 4 + 8 = 13
12:00 York (17402) 2 + 1 + 29 = 32
12:30 Grove City (16127) 3 + 4 + 10 = 17
1:00 Stroudsburg (18360) 4 + 4 + 19 = 27
1:00 Cranberry Township (16066) 2 + 2 + 7 = 11
1:00 Indiana (15701) 3 + 1 + 7 = 11
2:30 York (17402) 5 + 2 + 14 = 21
1/23 Tuesday
3:00 Dickson City (18519) 0 + 1 + 9 = 10
1/24 Wednesday
4:00 Pittsburgh (15232) 6 + 0 + 13 = 19
1/25 Thursday
5:00 Ebensburg (15931) 1 + 2 + 5 = 8
5:45 Lancaster (17603) 5 + 1 + 4 = 10
1/27 Saturday
10:00 Holmes (19043 ) 2 + 7 + 11 = 20
10:00 New Holland (17557) 2 + 0 + 6 = 8
12:15 Erie (16505) 1 + 4 + 18 = 23
2:00 Reading (19605) 2 + 2 + 10 = 14
4:00 West Chester (19380) 7 + 2 + 7 = 16
1/28 Sunday
Tarentum (15084) 1 + 0 + 7 = 8
12:00 Stroudsburg (18360) 1 + 3 + 14 = 18
1:00 Cranberry Township (16066) 2 + 0 + 8 = 10
Puerto Rico
1/20 Saturday
12:00 Isabela (00662) 0 + 0 + 8 = 8
12:00 Caguas (00725) 4 + 4 + 22 = 30
2:00 Humacao (00791) 0 + 1 + 12 = 13
9:00 Caguas (00725) 1 + 2 + 13 = 16
1/21 Sunday
10:00 Aguadilla (00603) 2 + 1 + 14 = 17
11:00 San Juan (00918) 3 + 1 + 16 = 20
12:00 Humacao (00791) 1 + 0 + 7 = 8
1/28 Sunday
12:00 Ponce (00717) 1 + 2 + 8 = 11
12:00 Carolina (00983) 1 + 0 + 18 = 19
Quebec
1/20 Saturday
Québec (G1V4P7) 0 + 4 + 16 = 20
9:00 sherbrooke (J1H 1P4) 5 + 4 + 1 = 10
9:00 Gatineau (J9H 6A6) 2 + 4 + 18 = 24
9:30 joliette (J6E 5E8) 0 + 4 + 17 = 21
10:00 Montréal ( H3B 1H5) 2 + 3 + 10 = 15
10:00 Ste-Therese (J7E3H4) 2 + 2 + 22 = 26
11:00 Québec (G1K 3B9) 2 + 2 + 15 = 19
11:00 Verdun (H4G1W6) 0 + 0 + 8 = 8
11:00 Montreal (H3L 2E8) 4 + 0 + 5 = 9
12:00 Montreal (H2K2H9) 2 + 0 + 8 = 10
12:00 sherbrooke (J1H 5B7) 7 + 4 + 3 = 14
12:30 Val-d'Or (J9P 1S4) 1 + 0 + 10 = 11
12:30 joliette (J6E 5E8) 0 + 2 + 12 = 14
2:00 Gatineau (J8X 4H4) 0 + 0 + 10 = 10
2:00 montreal (H4G 1W5) 1 + 0 + 7 = 8
3:00 Québec (G1K 3B9) 0 + 1 + 17 = 18
5:00 Gatineau (J8X 4H4) 3 + 2 + 12 = 17
11:00 Gatineau (J8X 4H4) 1 + 1 + 7 = 9
1/21 Sunday
Beloeil (J3G 2M9) 2 + 2 + 20 = 24
8:30 Beloeil (J3G 2M9) 2 + 1 + 12 = 15
9:30 Montréal (H2R 1P8) 2 + 1 + 7 = 10
10:00 Gatineau (J8T 6H5) 1 + 3 + 17 = 21
10:00 Ste-Therese (J7E3H4) 5 + 2 + 19 = 26
10:00 Sherbrooke (J1G 1B6) 0 + 0 + 11 = 11
11:00 Saint-Jerome (J7Z5B8) 1 + 2 + 11 = 14
11:00 Québec (G1K 3B9) 1 + 1 + 12 = 14
11:25 Gatineau (J8T 6H5) 1 + 2 + 15 = 18
12:00 Trois-Rivières (G8Z 3W2) 1 + 1 + 8 = 10
12:00 Chateauguay (J6K 3J9) 2 + 6 + 10 = 18
12:30 joliette (J6E 5E8) 0 + 2 + 6 = 8
3:00 Beloeil (J3G 2M9) 0 + 1 + 11 = 12
5:00 Cowansville (J2K2X6) 0 + 0 + 11 = 11
1/23 Tuesday
5:00 Montréal ( H3B 1H5) 0 + 0 + 14 = 14
5:30 Ste-Therese (J7E3H4) 0 + 1 + 15 = 16
1/24 Wednesday
6:00 Montreal (H3L 2E8) 1 + 2 + 18 = 21
1/25 Thursday
6:00 Sherbrooke (J1G 1B6) 0 + 0 + 10 = 10
1/26 Friday
6:00 Montreal (H3L 2E8) 1 + 0 + 8 = 9
1/27 Saturday
9:30 joliette (J6E 5E8) 2 + 3 + 14 = 19
10:00 Montréal ( H3B 1H5) 2 + 0 + 32 = 34
11:00 Chateauguay (J6K 1C4) 1 + 3 + 8 = 12
11:00 Verdun (H4G1W6) 0 + 1 + 12 = 13
11:00 Montreal (H3L 2E8) 1 + 1 + 8 = 10
12:30 Gatineau (J9H 6A6) 1 + 4 + 9 = 14
1:00 joliette (J6E 5E8) 1 + 6 + 20 = 27
5:00 Longueuil (J4K 2C5) 1 + 1 + 32 = 34
1/28 Sunday
9:00 Chateauguay (J6K 3J9) 1 + 3 + 6 = 10
10:00 Montréal ( H3B 1H5) 0 + 1 + 10 = 11
10:00 Ste-Therese (J7E3H4) 0 + 1 + 17 = 18
11:00 Chateauguay (J6K 1C4) 2 + 2 + 6 = 10
11:00 Saint-Jerome (J7Z5B8) 0 + 2 + 12 = 14
12:00 Trois-Rivières (G8Z 3W2)
5:00 Cowansville (J2K2X6) 0 + 0 + 10 = 10
Rhode Island
1/20 Saturday
1:15 Warwick (02888) 1 + 5 + 21 = 27
1/21 Sunday
12:00 Narraganset (02882) 1 + 1 + 15 = 17
1/28 Sunday
12:00 Pawtucket (02860) 5 + 3 + 18 = 26
Saskatchewan
1/20 Saturday
12:00 Saskatoon (S7H 2P6) 1 + 5 + 13 = 19
South Carolina
1/20 Saturday
Myrtle Beach (29588) 12 + 6 + 11 = 29
10:15 Rock Hill (29730) 0 + 2 + 13 = 15
2:30 Rock Hill (29730) 0 + 4 + 13 = 17
1/21 Sunday
12:30 Columbia (29210) 6 + 4 + 34 = 44
4:30 Columbia (29210) 0 + 1 + 12 = 13
1/26 Friday
6:00 Rock Hill (29730) 2 + 6 + 18 = 26
1/27 Saturday
10:15 Rock Hill (29730) 3 + 3 + 6 = 12
11:00 Summerville (29485) 3 + 3 + 22 = 28
1:00 Greenville (29607) 4 + 3 + 7 = 14
5:00 Summerville (29485) 1 + 3 + 16 = 20
1/28 Sunday
11:00 Summerville (29485) 1 + 2 + 5 = 8
12:00 Rock Hill (29730) 2 + 1 + 9 = 12
1:00 Rock Hill (29730) 1 + 2 + 13 = 16
2:30 Anderson (29621) 4 + 4 + 5 = 13
5:00 Greenville (29607) 4 + 8 + 26 = 38
South Dakota
1/27 Saturday
10:00 Rapid City (57702) 0 + 4 + 11 = 15
Tennessee
1/20 Saturday
Madison (37115) 1 + 0 + 20 = 21
9:00 Cookeville (38501) 1 + 1 + 15 = 17
10:00 Memphis (38133) 5 + 4 + 31 = 40
10:00 Chattanooga (37415) 3 + 3 + 25 = 31
10:00 Clarksville (37042) 5 + 6 + 14 = 25
10:30 Madison (37115) 1 + 2 + 22 = 25
11:00 McKenzie (38201) 3 + 1 + 10 = 14
12:00 Sevierville (37862) 1 + 3 + 12 = 16
2:00 Memphis (38133) 2 + 0 + 12 = 14
2:30 Madison (37115) 1 + 4 + 30 = 35
6:30 Madison (37115) 0 + 3 + 29 = 32
1/21 Sunday
12:00 Morristown (37813) 0 + 0 + 8 = 8
12:00 Knoxville (37919) 4 + 7 + 25 = 36
12:00 Bristol (37620) 0 + 1 + 17 = 18
12:00 Madison (37115) 4 + 3 + 37 = 44
3:30 Madison (37115) 4 + 4 + 28 = 36
1/27 Saturday
10:00 Knoxville (37924) 1 + 0 + 38 = 39
11:00 McKenzie (38201) 2 + 1 + 11 = 14
12:00 Chattanooga (37421) 5 + 8 + 23 = 36
12:15 Franklin (37217) 1 + 6 + 6 = 13
1/28 Sunday
12:00 Maryville (37801) 5 + 2 + 7 = 14
Texas
1/20 Saturday
Arlington (76001) 1 + 1 + 10 = 12
Waco (76706) 0 + 0 + 12 = 12
Ft. Worth (76140) 0 + 0 + 10 = 10
1:00 Bedford (76021) 0 + 3 + 33 = 36
9:00 McKinney (75070) 2 + 3 + 3 = 8
9:00 Plano (75023) 2 + 9 + 14 = 25
10:00 Tyler (75701) 1 + 5 + 14 = 20
10:00 El Paso (79902) 1 + 4 + 37 = 42
10:00 AUSTIN (78747) 2 + 0 + 6 = 8
11:00 Houston (77077) 5 + 4 + 35 = 44
11:00 Bedford (76021) 3 + 3 + 7 = 13
11:00 Frisco (75034) 3 + 7 + 15 = 25
11:00 Lubbock (79412) 6 + 4 + 11 = 21
11:30 Tyler (75707) 2 + 7 + 17 = 26
12:00 Conroe (77301) 7 + 3 + 19 = 29
12:00 Houston (77015) 1 + 4 + 23 = 28
1:30 Ft. Worth (76140) 0 + 1 + 11 = 12
2:00 MANSFIELD (76063) 5 + 5 + 6 = 16
2:00 MANSFIELD (76063) 4 + 1 + 7 = 12
2:00 Waco (76710) 2 + 2 + 7 = 11
3:00 Bedford (76021) 1 + 2 + 18 = 21
4:00 Longview (75604) 0 + 0 + 16 = 16
4:00 El Paso (79925) 0 + 1 + 9 = 10
4:45 Copperas Cove (76522) 1 + 1 + 14 = 16
6:00 Lewisville (75057) 6 + 6 + 21 = 33
6:45 San Antonio (78231) 1 + 1 + 27 = 29
1/21 Sunday
9:30 Hurst (76053) 2 + 6 + 19 = 27
10:00 Austin (78757) 11 + 9 + 31 = 51
11:00 Dallas (75247) 1 + 2 + 16 = 19
11:00 Fort Worth (76244) 4 + 5 + 15 = 24
11:00 san antonio (78229) 4 + 4 + 65 = 73
11:00 Houston (77098) 3 + 5 + 28 = 36
11:00 Austin (78727) 3 + 0 + 5 = 8
12:00 Cypress (77429) 5 + 2 + 15 = 22
12:00 Denison (75020) 0 + 1 + 11 = 12
12:00 Copperas Cove (76522) 2 + 1 + 10 = 13
12:30 New Braunfels (78130) 3 + 6 + 15 = 24
1:00 Bedford (76021) 3 + 3 + 22 = 28
1:00 Frisco (75034) 3 + 3 + 8 = 14
1:00 Houston (77089) 6 + 7 + 28 = 41
1:00 Dallas (75287) 2 + 0 + 15 = 17
1:00 Mission (78572) 0 + 0 + 27 = 27
1:30 Fort Worth (76133) 1 + 3 + 5 = 9
2:00 Laredo (78043) 0 + 0 + 23 = 23
2:00 College Station (77840) 1 + 0 + 7 = 8
3:00 Dallas (75247) 0 + 1 + 13 = 14
3:00 Waco (76706) 0 + 1 + 7 = 8
3:00 Corpus Christi (78413) 0 + 3 + 23 = 26
6:30 El Paso (79925) 0 + 0 + 10 = 10
1/22 Monday
12:00 Conroe (77301) 4 + 2 + 25 = 31
5:00 Plano (75023) 1 + 3 + 15 = 19
6:30 Austin (78727) 0 + 1 + 19 = 20
1/23 Tuesday
5:30 Dallas (75287) 0 + 0 + 10 = 10
1/24 Wednesday
6:00 Lubbock (79401) 0 + 1 + 8 = 9
1/25 Thursday
6:00 El Paso (79925) 2 + 0 + 54 = 56
6:00 MANSFIELD (76063) 2 + 1 + 11 = 14
6:00 Ft. Worth (76140) 0 + 1 + 11 = 12
6:30 Austin (78727) 1 + 0 + 10 = 11
1/27 Saturday
10:00 Austin (78757) 10 + 5 + 12 = 27
11:00 Austin (78727) 0 + 2 + 11 = 13
11:30 Tyler (75707) 2 + 4 + 6 = 12
12:00 Conroe (77301) 4 + 4 + 7 = 15
3:00 Waco (76706) 0 + 1 + 7 = 8
3:00 Bedford (76021) 1 + 0 + 12 = 13
4:00 Longview (75604) 3 + 0 + 5 = 8
1/28 Sunday
11:00 Waco (76710) 2 + 2 + 7 = 11
12:30 New Braunfels (78130) 1 + 3 + 9 = 13
1:00 Bedford (76021) 1 + 4 + 11 = 16
5:00 Harlingen (78550)
Utah
1/20 Saturday
Layton (84041) 3 + 1 + 12 = 16
10:00 Salt Lake City (84106) 6 + 5 + 17 = 28
10:00 Midvale (84047) 4 + 4 + 14 = 22
11:00 Saint George (84770) 0 + 0 + 9 = 9
12:00 Spanish Fork (84660) 0 + 0 + 9 = 9
1:30 Tooele (84074) 5 + 4 + 10 = 19
2:00 Sandy (84094) 1 + 4 + 21 = 26
5:30 North Salt Lake (84054) 5 + 1 + 15 = 21
1/22 Monday
6:00 Layton (84041) 0 + 0 + 20 = 20
1/23 Tuesday
6:30 Lehi (84043) 0 + 2 + 10 = 12
1/24 Wednesday
6:00 Layton (84041) 1 + 4 + 11 = 16
1/25 Thursday
5:30 Tooele (84074) 3 + 2 + 8 = 13
1/27 Saturday
10:00 Orem (84058) 1 + 6 + 18 = 25
11:00 Saint George (84770) 0 + 1 + 7 = 8
12:00 Salt Lake City (84111) 2 + 3 + 24 = 29
5:30 North Ogden (84414) 0 + 2 + 14 = 16
Vermont
1/21 Sunday
11:00 Essex Junction (05452) 1 + 0 + 16 = 17
Virginia
1/20 Saturday
10:00 Sterling (20165) 5 + 5 + 6 = 16
10:00 Fredericksburg (22401) 0 + 2 + 20 = 22
11:00 Richmond (23228) 3 + 6 + 21 = 30
11:00 Hampton (23669) 3 + 6 + 11 = 20
12:00 Chantilly (20151) 4 + 5 + 23 = 32
12:00 Portsmouth (23701) 4 + 13 + 14 = 31
1:00 Lynchburg (24502) 3 + 3 + 7 = 13
2:30 Chantilly (20151) 0 + 2 + 9 = 11
4:00 Virginia Beach (23452) 2 + 0 + 8 = 10
4:00 Newport News (23608) 2 + 2 + 14 = 18
6:00 Richmond (23228) 2 + 3 + 15 = 20
1/21 Sunday
10:00 Fredericksburg (22401) 1 + 3 + 13 = 17
11:00 Virginia Beach (23452) 0 + 1 + 7 = 8
11:30 Centreville (20120) 2 + 1 + 8 = 11
12:00 Norfolk (23503) 4 + 3 + 14 = 21
2:00 Virginia Beach (23452)
2:30 Centreville (20120) 0 + 1 + 7 = 8
1/22 Monday
3:45 Lexington (24450) 3 + 4 + 3 = 10
1/26 Friday
6:00 Richmond (23228) 1 + 5 + 9 = 15
1/27 Saturday
10:00 Sterling (20165) 2 + 5 + 4 = 11
10:00 Falls Church (22046) 12 + 8 + 18 = 38
11:00 Hampton (23669) 2 + 2 + 8 = 12
11:00 Richmond (23228) 0 + 3 + 6 = 9
12:00 Winchester (22601) 4 + 8 + 18 = 30
12:00 Virginia Beach (23456) 4 + 4 + 12 = 20
12:00 Portsmouth (23701) 2 + 3 + 8 = 13
1:00 Lynchburg (24502) 2 + 0 + 8 = 10
1:00 Chantilly (20151) 1 + 7 + 11 = 19
4:00 Midlothian (23113) 2 + 1 + 7 = 10
4:00 Newport News (23608) 1 + 2 + 6 = 9
1/28 Sunday
12:00 Norfolk (23503)
12:30 Harrisonburg (22801) 2 + 2 + 15 = 19
1:00 Charlottesville (22901) 6 + 5 + 17 = 28
2:00 Virginia Beach (23452) 2 + 1 + 5 = 8
2:45 Fincastle (24090) 2 + 9 + 9 = 20
Washington
1/20 Saturday
12:05 Lakewood (98499) 0 + 0 + 10 = 10
9:00 Edmonds (98026) 2 + 5 + 8 = 15
9:30 Seattle (98116) 3 + 4 + 7 = 14
10:00 Renton (98055) 3 + 8 + 28 = 39
10:00 Lacey (98503) 1 + 4 + 12 = 17
12:00 Kirkland (98033) 1 + 0 + 7 = 8
12:00 Spokane (99201) 2 + 6 + 16 = 24
1:00 Renton (98055) 1 + 2 + 17 = 20
1:00 Edmonds (98026) 1 + 2 + 12 = 15
3:00 Puyallup (98373) 4 + 5 + 17 = 26
6:00 Marysville (98270) 1 + 1 + 6 = 8
1/21 Sunday
10:30 Spokane (99207) 7 + 10 + 45 = 62
11:00 Bellevue (98005) 12 + 8 + 22 = 42
11:00 Lakewood (98499) 0 + 1 + 7 = 8
12:00 Seattle (98109) 13 + 7 + 7 = 27
12:00 Bremerton (98337) 2 + 2 + 12 = 16
3:00 Seattle (98107) 7 + 3 + 9 = 19
1/22 Monday
4:30 Auburn (98002) 0 + 1 + 16 = 17
5:30 Spokane (99207) 7 + 10 + 37 = 54
1/25 Thursday
6:00 Spokane Valley (99206) 0 + 1 + 13 = 14
6:00 Marysville (98270) 0 + 2 + 8 = 10
1/27 Saturday
10:00 Richland (99354) 1 + 5 + 9 = 15
10:00 Edmonds (98026)
11:00 Ellensburg (98926) 6 + 3 + 9 = 18
12:00 Tacoma (98406) 5 + 3 + 13 = 21
12:30 Spokane (99207) 2 + 3 + 19 = 24
1:00 Redmond (98052) 5 + 6 + 15 = 26
2:00 Richland (99354) 4 + 5 + 27 = 36
5:00 Tacoma (98409) 1 + 1 + 6 = 8
1/28 Sunday
12:30 Mt Vernon (98273) 2 + 2 + 4 = 8
2:00 Grandview (98930) 0 + 2 + 11 = 13
5:00 Anacortes (98221) 0 + 1 + 7 = 8
West Virginia
1/21 Sunday
12:00 Morgantown (26501) 11 + 7 + 11 = 29
1/27 Saturday
11:00 Parkersburg (26101) 2 + 0 + 10 = 12
3:30 Vienna (26105) 4 + 3 + 12 = 19
Wisconsin
1/20 Saturday
De Pere (54115) 1 + 3 + 32 = 36
9:00 Green Bay (54304) 5 + 5 + 12 = 22
9:00 Appleton (54915) 3 + 8 + 17 = 28
10:00 Fond du Lac (54935) 4 + 4 + 10 = 18
11:00 La Crosse (54601) 6 + 7 + 10 = 23
11:00 Oconomowoc (53066) 5 + 1 + 21 = 27
1/21 Sunday
11:00 La Crosse (54601) 1 + 4 + 9 = 14
12:00 La Crosse (54601) 2 + 2 + 5 = 9
12:00 Schofield (54476) 1 + 4 + 31 = 36
12:00 Madison (53719) 7 + 11 + 38 = 56
12:30 Green Bay (54302) 8 + 6 + 26 = 40
1/23 Tuesday
3:00 Sheboygan (53081) 8 + 5 + 7 = 20
1/27 Saturday
9:00 Green Bay (54304) 1 + 5 + 6 = 12
9:00 Appleton (54915) 4 + 5 + 19 = 28
9:30 Sparta (54656) 2 + 0 + 8 = 10
10:00 Fond du Lac (54935) 3 + 2 + 15 = 20
10:00 Mount Pleasant (53403) 4 + 6 + 9 = 19
11:00 La Crosse (54601) 4 + 5 + 8 = 17
1:00 Eau Claire (54701) 1 + 1 + 12 = 14
1/28 Sunday
9:00 La Crosse (54601) 1 + 1 + 10 = 12
11:00 Stevens Point (54481) 5 + 6 + 13 = 24
12:00 La Crosse (54601) 2 + 5 + 6 = 13
12:00 Janesville (53545) 1 + 1 + 10 = 12
12:30 Green Bay (54302) 1 + 5 + 12 = 18
12:30 Oshkosh (54902) 3 + 3 + 10 = 16
Wyoming
1/28 Sunday
1:00 Cheyenne (82001) 3 + 5 + 3 = 11